createdAt,value
2023-01-29T00:00:58.178Z,974.02
2023-01-29T00:01:58.194Z,974.05
2023-01-29T00:02:58.153Z,974.03
2023-01-29T00:03:58.142Z,974.01
2023-01-29T00:04:59.160Z,973.96
2023-01-29T00:05:58.078Z,973.95
2023-01-29T00:06:58.080Z,973.95
2023-01-29T00:07:58.142Z,973.98
2023-01-29T00:08:58.074Z,973.94
2023-01-29T00:09:58.033Z,973.97
2023-01-29T00:10:58.021Z,974.05
2023-01-29T00:11:58.020Z,974.01
2023-01-29T00:12:58.027Z,974.00
2023-01-29T00:13:58.010Z,974.07
2023-01-29T00:14:58.015Z,974.08
2023-01-29T00:15:57.982Z,974.07
2023-01-29T00:16:58.065Z,974.13
2023-01-29T00:17:57.937Z,974.10
2023-01-29T00:18:57.929Z,974.10
2023-01-29T00:19:57.960Z,974.13
2023-01-29T00:20:57.916Z,974.12
2023-01-29T00:21:57.922Z,974.12
2023-01-29T00:22:57.905Z,974.12
2023-01-29T00:23:57.928Z,974.15
2023-01-29T00:24:57.944Z,974.14
2023-01-29T00:25:57.851Z,974.13
2023-01-29T00:26:57.856Z,974.11
2023-01-29T00:27:57.861Z,974.09
2023-01-29T00:28:57.833Z,974.10
2023-01-29T00:29:57.808Z,974.09
2023-01-29T00:30:57.971Z,974.09
2023-01-29T00:31:58.038Z,974.02
2023-01-29T00:32:57.814Z,974.04
2023-01-29T00:33:57.761Z,974.08
2023-01-29T00:34:57.766Z,974.05
2023-01-29T00:35:57.744Z,974.07
2023-01-29T00:36:57.758Z,974.08
2023-01-29T00:37:57.733Z,974.09
2023-01-29T00:38:57.747Z,974.06
2023-01-29T00:39:57.698Z,974.04
2023-01-29T00:40:57.710Z,974.06
2023-01-29T00:41:57.738Z,974.05
2023-01-29T00:42:57.697Z,974.05
2023-01-29T00:43:57.668Z,974.04
2023-01-29T00:44:57.678Z,974.06
2023-01-29T00:45:57.642Z,974.04
2023-01-29T00:46:57.682Z,973.99
2023-01-29T00:47:57.656Z,973.99
2023-01-29T00:48:58.316Z,973.96
2023-01-29T00:49:57.603Z,973.98
2023-01-29T00:50:57.571Z,973.98
2023-01-29T00:51:57.565Z,973.98
2023-01-29T00:52:57.582Z,973.94
2023-01-29T00:53:57.547Z,973.89
2023-01-29T00:54:57.562Z,973.99
2023-01-29T00:55:57.526Z,973.96
2023-01-29T00:56:57.547Z,973.96
2023-01-29T00:57:57.514Z,974.00
2023-01-29T00:58:57.480Z,973.98
2023-01-29T00:59:57.498Z,973.99
2023-01-29T01:00:57.559Z,973.99
2023-01-29T01:01:57.527Z,973.97
2023-01-29T01:02:57.449Z,973.96
2023-01-29T01:03:57.425Z,973.98
2023-01-29T01:04:57.460Z,973.96
2023-01-29T01:05:57.442Z,973.91
2023-01-29T01:06:57.417Z,973.97
2023-01-29T01:07:57.379Z,973.94
2023-01-29T01:08:57.389Z,974.01
2023-01-29T01:09:57.373Z,974.04
2023-01-29T01:10:57.387Z,974.12
2023-01-29T01:11:57.372Z,974.08
2023-01-29T01:12:57.359Z,974.11
2023-01-29T01:13:57.318Z,974.08
2023-01-29T01:14:57.302Z,974.05
2023-01-29T01:15:57.314Z,974.05
2023-01-29T01:16:57.307Z,974.04
2023-01-29T01:17:57.302Z,974.10
2023-01-29T01:18:57.285Z,974.07
2023-01-29T01:19:57.280Z,974.10
2023-01-29T01:20:57.235Z,974.07
2023-01-29T01:21:57.225Z,974.11
2023-01-29T01:22:57.214Z,974.09
2023-01-29T01:23:57.252Z,974.10
2023-01-29T01:24:57.225Z,974.20
2023-01-29T01:25:57.177Z,974.18
2023-01-29T01:26:57.224Z,974.27
2023-01-29T01:27:57.181Z,974.25
2023-01-29T01:28:57.153Z,974.21
2023-01-29T01:29:57.152Z,974.21
2023-01-29T01:30:57.272Z,974.14
2023-01-29T01:31:57.153Z,974.19
2023-01-29T01:32:57.099Z,974.16
2023-01-29T01:33:57.103Z,974.13
2023-01-29T01:34:57.089Z,974.08
2023-01-29T01:35:57.092Z,974.08
2023-01-29T01:36:57.108Z,974.08
2023-01-29T01:37:57.051Z,974.06
2023-01-29T01:38:57.034Z,974.16
2023-01-29T01:39:57.022Z,974.11
2023-01-29T01:40:57.028Z,974.14
2023-01-29T01:41:57.036Z,974.04
2023-01-29T01:42:57.036Z,974.01
2023-01-29T01:43:56.977Z,974.07
2023-01-29T01:44:57.029Z,974.04
2023-01-29T01:45:56.976Z,974.04
2023-01-29T01:46:56.967Z,974.05
2023-01-29T01:47:56.943Z,974.05
2023-01-29T01:48:56.923Z,973.96
2023-01-29T01:49:56.978Z,973.99
2023-01-29T01:50:56.932Z,973.96
2023-01-29T01:51:56.893Z,974.01
2023-01-29T01:52:56.888Z,974.05
2023-01-29T01:53:56.876Z,974.08
2023-01-29T01:54:56.860Z,974.06
2023-01-29T01:55:56.887Z,974.00
2023-01-29T01:56:56.865Z,974.03
2023-01-29T01:57:56.836Z,974.00
2023-01-29T01:58:56.836Z,973.98
2023-01-29T01:59:56.837Z,973.98
2023-01-29T02:00:56.833Z,974.02
2023-01-29T02:01:56.842Z,974.05
2023-01-29T02:02:56.794Z,974.05
2023-01-29T02:03:56.773Z,974.00
2023-01-29T02:04:56.745Z,974.06
2023-01-29T02:05:56.788Z,974.05
2023-01-29T02:06:56.723Z,974.04
2023-01-29T02:07:56.721Z,974.07
2023-01-29T02:08:56.718Z,974.09
2023-01-29T02:09:56.697Z,974.06
2023-01-29T02:10:56.716Z,974.06
2023-01-29T02:11:56.713Z,974.04
2023-01-29T02:12:56.659Z,974.07
2023-01-29T02:13:56.658Z,974.06
2023-01-29T02:14:56.658Z,973.99
2023-01-29T02:15:56.650Z,973.99
2023-01-29T02:16:56.644Z,973.99
2023-01-29T02:17:56.602Z,974.00
2023-01-29T02:18:56.589Z,973.95
2023-01-29T02:19:56.602Z,973.94
2023-01-29T02:20:56.589Z,973.89
2023-01-29T02:21:56.601Z,973.97
2023-01-29T02:22:56.578Z,973.92
2023-01-29T02:23:56.740Z,973.99
2023-01-29T02:24:56.525Z,973.99
2023-01-29T02:25:56.515Z,973.99
2023-01-29T02:26:56.547Z,974.00
2023-01-29T02:27:56.520Z,973.98
2023-01-29T02:28:56.520Z,973.98
2023-01-29T02:29:56.465Z,973.98
2023-01-29T02:30:56.525Z,973.92
2023-01-29T02:31:56.485Z,973.89
2023-01-29T02:32:56.445Z,973.87
2023-01-29T02:33:56.456Z,973.87
2023-01-29T02:34:56.476Z,973.89
2023-01-29T02:35:56.398Z,973.85
2023-01-29T02:36:56.402Z,973.83
2023-01-29T02:37:56.385Z,973.90
2023-01-29T02:38:56.398Z,973.87
2023-01-29T02:39:56.366Z,973.88
2023-01-29T02:40:56.373Z,973.91
2023-01-29T02:41:56.334Z,973.88
2023-01-29T02:42:56.321Z,973.91
2023-01-29T02:43:56.323Z,973.86
2023-01-29T02:44:56.341Z,973.86
2023-01-29T02:45:56.324Z,973.83
2023-01-29T02:46:56.297Z,973.84
2023-01-29T02:47:56.272Z,973.79
2023-01-29T02:48:56.289Z,973.83
2023-01-29T02:49:56.251Z,973.78
2023-01-29T02:50:56.253Z,973.82
2023-01-29T02:51:56.218Z,973.82
2023-01-29T02:52:56.277Z,973.85
2023-01-29T02:53:56.216Z,973.83
2023-01-29T02:54:56.196Z,973.88
2023-01-29T02:55:56.198Z,973.88
2023-01-29T02:56:56.203Z,973.85
2023-01-29T02:57:56.156Z,973.89
2023-01-29T02:58:56.186Z,973.94
2023-01-29T03:00:04.919Z,973.87
2023-01-29T03:00:56.160Z,973.91
2023-01-29T03:01:56.152Z,973.91
2023-01-29T03:02:56.112Z,973.93
2023-01-29T03:03:56.128Z,973.88
2023-01-29T03:04:56.080Z,973.93
2023-01-29T03:05:56.082Z,973.90
2023-01-29T03:06:56.062Z,973.92
2023-01-29T03:07:56.067Z,973.96
2023-01-29T03:08:56.079Z,973.94
2023-01-29T03:09:56.036Z,973.94
2023-01-29T03:10:56.025Z,973.98
2023-01-29T03:11:56.026Z,973.97
2023-01-29T03:12:55.998Z,973.96
2023-01-29T03:13:56.003Z,973.97
2023-01-29T03:14:55.984Z,974.00
2023-01-29T03:15:55.952Z,974.01
2023-01-29T03:16:55.960Z,974.00
2023-01-29T03:17:55.969Z,973.98
2023-01-29T03:18:55.964Z,973.99
2023-01-29T03:19:55.905Z,974.01
2023-01-29T03:20:55.911Z,973.98
2023-01-29T03:21:55.888Z,974.01
2023-01-29T03:22:55.903Z,973.99
2023-01-29T03:23:55.932Z,973.98
2023-01-29T03:24:55.864Z,973.98
2023-01-29T03:25:55.837Z,973.99
2023-01-29T03:26:55.849Z,974.00
2023-01-29T03:27:55.853Z,973.97
2023-01-29T03:28:55.838Z,973.98
2023-01-29T03:29:55.844Z,973.95
2023-01-29T03:30:55.824Z,973.92
2023-01-29T03:31:55.886Z,973.90
2023-01-29T03:32:55.774Z,973.92
2023-01-29T03:33:55.779Z,973.90
2023-01-29T03:34:55.766Z,973.86
2023-01-29T03:35:55.756Z,973.82
2023-01-29T03:36:55.729Z,973.85
2023-01-29T03:37:55.704Z,973.83
2023-01-29T03:38:55.711Z,973.74
2023-01-29T03:39:55.713Z,973.84
2023-01-29T03:40:55.724Z,973.76
2023-01-29T03:41:55.683Z,973.71
2023-01-29T03:42:55.695Z,973.70
2023-01-29T03:43:55.637Z,973.72
2023-01-29T03:44:55.646Z,973.69
2023-01-29T03:45:55.639Z,973.67
2023-01-29T03:46:55.617Z,973.69
2023-01-29T03:47:55.620Z,973.71
2023-01-29T03:48:55.602Z,973.79
2023-01-29T03:49:55.571Z,973.74
2023-01-29T03:50:55.586Z,973.74
2023-01-29T03:51:55.583Z,973.74
2023-01-29T03:52:55.554Z,973.74
2023-01-29T03:53:55.534Z,973.73
2023-01-29T03:54:55.512Z,973.74
2023-01-29T03:55:55.518Z,973.72
2023-01-29T03:56:55.533Z,973.74
2023-01-29T03:57:55.495Z,973.69
2023-01-29T03:58:55.494Z,973.70
2023-01-29T03:59:55.500Z,973.72
2023-01-29T04:00:55.447Z,973.74
2023-01-29T04:01:55.447Z,973.74
2023-01-29T04:02:55.492Z,973.74
2023-01-29T04:03:55.499Z,973.80
2023-01-29T04:04:55.434Z,973.79
2023-01-29T04:05:55.392Z,973.81
2023-01-29T04:06:55.381Z,973.81
2023-01-29T04:07:55.394Z,973.85
2023-01-29T04:08:55.390Z,973.86
2023-01-29T04:09:55.363Z,973.82
2023-01-29T04:10:55.335Z,973.86
2023-01-29T04:11:55.336Z,973.88
2023-01-29T04:12:55.313Z,973.84
2023-01-29T04:13:55.330Z,973.89
2023-01-29T04:14:55.323Z,973.90
2023-01-29T04:15:55.308Z,973.92
2023-01-29T04:16:55.270Z,973.90
2023-01-29T04:17:55.265Z,973.96
2023-01-29T04:18:55.278Z,973.91
2023-01-29T04:19:55.248Z,973.91
2023-01-29T04:20:55.270Z,973.87
2023-01-29T04:21:55.243Z,973.86
2023-01-29T04:22:55.218Z,973.90
2023-01-29T04:23:55.263Z,973.84
2023-01-29T04:24:55.223Z,973.87
2023-01-29T04:25:55.185Z,973.84
2023-01-29T04:26:55.220Z,973.85
2023-01-29T04:27:55.153Z,973.87
2023-01-29T04:28:55.135Z,973.83
2023-01-29T04:29:55.127Z,973.81
2023-01-29T04:30:55.218Z,973.87
2023-01-29T04:31:55.217Z,973.81
2023-01-29T04:32:55.109Z,973.75
2023-01-29T04:33:55.080Z,973.76
2023-01-29T04:34:55.066Z,973.84
2023-01-29T04:35:55.085Z,973.83
2023-01-29T04:36:55.072Z,973.81
2023-01-29T04:37:55.079Z,973.82
2023-01-29T04:38:55.909Z,973.77
2023-01-29T04:39:55.012Z,973.82
2023-01-29T04:40:55.002Z,973.82
2023-01-29T04:41:55.012Z,973.81
2023-01-29T04:42:54.996Z,973.78
2023-01-29T04:43:54.990Z,973.76
2023-01-29T04:44:54.955Z,973.82
2023-01-29T04:45:54.946Z,973.74
2023-01-29T04:46:54.931Z,973.74
2023-01-29T04:47:54.957Z,973.73
2023-01-29T04:48:54.952Z,973.77
2023-01-29T04:49:54.953Z,973.75
2023-01-29T04:50:54.890Z,973.77
2023-01-29T04:51:54.878Z,973.81
2023-01-29T04:52:54.870Z,973.87
2023-01-29T04:53:54.875Z,973.82
2023-01-29T04:54:54.876Z,973.84
2023-01-29T04:55:54.870Z,973.83
2023-01-29T04:56:54.864Z,973.84
2023-01-29T04:57:54.828Z,973.80
2023-01-29T04:58:54.806Z,973.81
2023-01-29T04:59:54.787Z,973.84
2023-01-29T05:00:54.802Z,973.78
2023-01-29T05:01:54.867Z,973.81
2023-01-29T05:02:54.832Z,973.82
2023-01-29T05:03:54.743Z,973.80
2023-01-29T05:04:54.743Z,973.80
2023-01-29T05:05:54.726Z,973.85
2023-01-29T05:06:54.736Z,973.83
2023-01-29T05:07:54.734Z,973.88
2023-01-29T05:08:54.700Z,973.86
2023-01-29T05:09:54.676Z,973.90
2023-01-29T05:10:54.695Z,973.88
2023-01-29T05:11:54.663Z,973.93
2023-01-29T05:12:54.673Z,973.96
2023-01-29T05:13:54.702Z,973.96
2023-01-29T05:14:54.618Z,974.00
2023-01-29T05:15:54.684Z,974.00
2023-01-29T05:16:54.597Z,973.96
2023-01-29T05:17:54.645Z,974.03
2023-01-29T05:18:54.575Z,974.03
2023-01-29T05:19:54.623Z,974.06
2023-01-29T05:20:54.551Z,974.03
2023-01-29T05:21:54.552Z,974.00
2023-01-29T05:22:54.532Z,973.97
2023-01-29T05:23:54.575Z,973.94
2023-01-29T05:24:54.578Z,973.97
2023-01-29T05:25:54.513Z,974.00
2023-01-29T05:26:54.523Z,974.00
2023-01-29T05:27:54.503Z,974.00
2023-01-29T05:28:56.168Z,974.01
2023-01-29T05:29:54.480Z,974.09
2023-01-29T05:30:54.506Z,974.06
2023-01-29T05:31:54.439Z,974.01
2023-01-29T05:32:54.460Z,974.03
2023-01-29T05:33:54.409Z,974.04
2023-01-29T05:34:54.414Z,973.99
2023-01-29T05:35:54.417Z,974.01
2023-01-29T05:36:54.374Z,974.00
2023-01-29T05:37:54.365Z,974.06
2023-01-29T05:38:54.377Z,974.03
2023-01-29T05:39:54.366Z,974.08
2023-01-29T05:40:54.347Z,973.96
2023-01-29T05:41:54.328Z,973.98
2023-01-29T05:42:54.323Z,974.04
2023-01-29T05:43:54.322Z,974.03
2023-01-29T05:44:54.377Z,974.03
2023-01-29T05:45:54.294Z,974.02
2023-01-29T05:46:54.338Z,973.99
2023-01-29T05:47:54.253Z,973.97
2023-01-29T05:48:54.239Z,974.00
2023-01-29T05:49:54.240Z,973.97
2023-01-29T05:50:54.282Z,974.00
2023-01-29T05:51:54.222Z,974.09
2023-01-29T05:52:54.226Z,973.97
2023-01-29T05:53:54.190Z,974.00
2023-01-29T05:54:54.174Z,974.00
2023-01-29T05:55:54.168Z,974.01
2023-01-29T05:56:54.214Z,973.96
2023-01-29T05:57:54.167Z,973.98
2023-01-29T05:58:54.127Z,973.96
2023-01-29T05:59:54.135Z,973.98
2023-01-29T06:00:54.107Z,973.88
2023-01-29T06:01:54.196Z,973.92
2023-01-29T06:02:54.201Z,973.89
2023-01-29T06:03:54.101Z,973.93
2023-01-29T06:04:54.062Z,973.91
2023-01-29T06:05:54.051Z,973.95
2023-01-29T06:06:54.039Z,973.95
2023-01-29T06:07:54.046Z,973.97
2023-01-29T06:08:54.063Z,973.97
2023-01-29T06:09:54.036Z,973.98
2023-01-29T06:10:53.994Z,974.00
2023-01-29T06:11:53.987Z,974.01
2023-01-29T06:12:53.983Z,974.05
2023-01-29T06:13:54.002Z,974.05
2023-01-29T06:14:53.995Z,974.03
2023-01-29T06:15:53.988Z,974.12
2023-01-29T06:16:53.925Z,974.04
2023-01-29T06:17:53.917Z,973.98
2023-01-29T06:18:53.947Z,974.04
2023-01-29T06:19:53.908Z,973.95
2023-01-29T06:20:53.925Z,974.04
2023-01-29T06:21:53.876Z,974.05
2023-01-29T06:22:53.870Z,973.98
2023-01-29T06:23:53.964Z,973.94
2023-01-29T06:24:53.861Z,973.96
2023-01-29T06:25:53.874Z,973.93
2023-01-29T06:26:53.867Z,973.97
2023-01-29T06:27:53.806Z,973.99
2023-01-29T06:28:53.807Z,973.98
2023-01-29T06:29:53.793Z,973.98
2023-01-29T06:30:53.827Z,973.94
2023-01-29T06:31:53.912Z,973.94
2023-01-29T06:32:53.787Z,974.02
2023-01-29T06:33:53.755Z,973.96
2023-01-29T06:34:53.725Z,974.03
2023-01-29T06:35:53.726Z,974.03
2023-01-29T06:36:53.738Z,974.09
2023-01-29T06:37:53.713Z,974.10
2023-01-29T06:38:53.727Z,974.15
2023-01-29T06:39:53.672Z,974.08
2023-01-29T06:40:53.692Z,974.16
2023-01-29T06:41:53.663Z,974.04
2023-01-29T06:42:53.649Z,974.11
2023-01-29T06:43:53.693Z,974.00
2023-01-29T06:44:53.657Z,974.03
2023-01-29T06:45:53.619Z,973.99
2023-01-29T06:46:53.594Z,974.11
2023-01-29T06:47:53.588Z,974.10
2023-01-29T06:48:53.584Z,974.13
2023-01-29T06:49:53.590Z,974.12
2023-01-29T06:50:53.590Z,974.18
2023-01-29T06:51:53.536Z,974.03
2023-01-29T06:52:53.529Z,974.07
2023-01-29T06:53:53.516Z,974.02
2023-01-29T06:54:53.527Z,973.97
2023-01-29T06:55:53.527Z,974.00
2023-01-29T06:56:53.536Z,973.99
2023-01-29T06:57:53.482Z,973.98
2023-01-29T06:58:53.474Z,974.01
2023-01-29T06:59:53.479Z,974.07
2023-01-29T07:00:53.510Z,973.98
2023-01-29T07:01:53.440Z,973.96
2023-01-29T07:02:53.412Z,973.91
2023-01-29T07:03:53.422Z,973.88
2023-01-29T07:04:53.393Z,973.79
2023-01-29T07:05:53.395Z,973.74
2023-01-29T07:06:53.396Z,973.75
2023-01-29T07:07:53.355Z,973.76
2023-01-29T07:08:53.347Z,973.76
2023-01-29T07:09:53.408Z,973.80
2023-01-29T07:10:53.332Z,973.78
2023-01-29T07:11:53.330Z,973.78
2023-01-29T07:12:53.323Z,973.77
2023-01-29T07:13:53.298Z,973.76
2023-01-29T07:14:53.307Z,973.81
2023-01-29T07:15:53.295Z,973.79
2023-01-29T07:16:53.925Z,973.80
2023-01-29T07:17:53.268Z,973.81
2023-01-29T07:18:53.240Z,973.86
2023-01-29T07:19:53.222Z,973.84
2023-01-29T07:20:53.234Z,973.75
2023-01-29T07:21:53.229Z,973.73
2023-01-29T07:22:53.199Z,973.63
2023-01-29T07:23:53.182Z,973.67
2023-01-29T07:24:53.203Z,973.67
2023-01-29T07:25:53.176Z,973.65
2023-01-29T07:26:53.151Z,973.61
2023-01-29T07:27:53.181Z,973.69
2023-01-29T07:28:53.143Z,973.67
2023-01-29T07:29:53.146Z,973.69
2023-01-29T07:30:53.121Z,973.72
2023-01-29T07:31:53.212Z,973.69
2023-01-29T07:32:53.083Z,973.67
2023-01-29T07:33:53.090Z,973.68
2023-01-29T07:34:53.082Z,973.73
2023-01-29T07:35:53.071Z,973.74
2023-01-29T07:36:53.033Z,973.71
2023-01-29T07:37:53.020Z,973.68
2023-01-29T07:38:53.040Z,973.72
2023-01-29T07:39:53.037Z,973.69
2023-01-29T07:40:53.016Z,973.76
2023-01-29T07:41:52.976Z,973.76
2023-01-29T07:42:52.967Z,973.77
2023-01-29T07:43:52.974Z,973.79
2023-01-29T07:44:52.978Z,973.82
2023-01-29T07:45:52.969Z,973.79
2023-01-29T07:46:52.941Z,973.87
2023-01-29T07:47:52.909Z,973.84
2023-01-29T07:48:52.912Z,973.81
2023-01-29T07:49:52.897Z,973.81
2023-01-29T07:50:52.895Z,973.82
2023-01-29T07:51:52.917Z,973.84
2023-01-29T07:52:52.854Z,973.78
2023-01-29T07:53:52.842Z,973.81
2023-01-29T07:54:52.834Z,973.82
2023-01-29T07:55:52.821Z,973.76
2023-01-29T07:56:52.838Z,973.77
2023-01-29T07:57:52.823Z,973.78
2023-01-29T07:58:52.825Z,973.75
2023-01-29T07:59:52.774Z,973.83
2023-01-29T08:00:52.841Z,973.78
2023-01-29T08:01:52.896Z,973.84
2023-01-29T08:02:52.766Z,973.80
2023-01-29T08:03:52.731Z,973.81
2023-01-29T08:04:52.721Z,973.82
2023-01-29T08:05:52.707Z,973.90
2023-01-29T08:06:52.704Z,973.90
2023-01-29T08:08:05.822Z,973.89
2023-01-29T08:08:53.734Z,973.88
2023-01-29T08:09:52.663Z,973.90
2023-01-29T08:10:52.657Z,973.87
2023-01-29T08:11:52.641Z,973.86
2023-01-29T08:12:52.659Z,973.87
2023-01-29T08:13:52.637Z,973.95
2023-01-29T08:14:52.651Z,973.89
2023-01-29T08:15:52.593Z,973.93
2023-01-29T08:16:52.678Z,974.00
2023-01-29T08:17:57.690Z,974.04
2023-01-29T08:18:53.585Z,974.04
2023-01-29T08:19:52.567Z,974.04
2023-01-29T08:20:52.958Z,974.07
2023-01-29T08:21:52.528Z,974.02
2023-01-29T08:22:52.518Z,974.04
2023-01-29T08:23:52.527Z,974.02
2023-01-29T08:24:54.413Z,974.02
2023-01-29T08:25:53.576Z,973.97
2023-01-29T08:26:52.490Z,974.01
2023-01-29T08:27:52.484Z,974.07
2023-01-29T08:28:52.456Z,974.04
2023-01-29T08:29:52.448Z,974.02
2023-01-29T08:30:52.453Z,974.02
2023-01-29T08:31:52.465Z,974.08
2023-01-29T08:32:52.406Z,974.05
2023-01-29T08:33:52.415Z,974.13
2023-01-29T08:34:52.405Z,974.07
2023-01-29T08:35:52.387Z,974.17
2023-01-29T08:36:52.373Z,974.24
2023-01-29T08:37:52.359Z,974.29
2023-01-29T08:38:52.387Z,974.32
2023-01-29T08:39:52.357Z,974.33
2023-01-29T08:40:52.319Z,974.29
2023-01-29T08:41:52.325Z,974.30
2023-01-29T08:42:52.316Z,974.33
2023-01-29T08:43:52.317Z,974.39
2023-01-29T08:44:52.272Z,974.40
2023-01-29T08:45:52.304Z,974.43
2023-01-29T08:46:52.255Z,974.44
2023-01-29T08:47:52.248Z,974.43
2023-01-29T08:48:52.242Z,974.43
2023-01-29T08:49:52.260Z,974.45
2023-01-29T08:50:52.205Z,974.44
2023-01-29T08:51:52.211Z,974.37
2023-01-29T08:52:52.194Z,974.42
2023-01-29T08:53:52.192Z,974.33
2023-01-29T08:54:52.186Z,974.33
2023-01-29T08:55:52.162Z,974.39
2023-01-29T08:56:52.153Z,974.40
2023-01-29T08:57:52.185Z,974.39
2023-01-29T08:58:52.134Z,974.35
2023-01-29T08:59:52.122Z,974.36
2023-01-29T09:00:52.127Z,974.40
2023-01-29T09:01:52.087Z,974.41
2023-01-29T09:02:52.085Z,974.45
2023-01-29T09:03:52.132Z,974.46
2023-01-29T09:04:52.058Z,974.41
2023-01-29T09:05:52.065Z,974.48
2023-01-29T09:06:52.074Z,974.47
2023-01-29T09:07:53.362Z,974.56
2023-01-29T09:08:52.005Z,974.55
2023-01-29T09:09:52.011Z,974.53
2023-01-29T09:10:51.993Z,974.48
2023-01-29T09:11:52.000Z,974.47
2023-01-29T09:12:51.963Z,974.52
2023-01-29T09:13:51.949Z,974.58
2023-01-29T09:14:51.954Z,974.56
2023-01-29T09:15:52.007Z,974.47
2023-01-29T09:16:52.002Z,974.46
2023-01-29T09:17:51.939Z,974.49
2023-01-29T09:18:51.927Z,974.51
2023-01-29T09:19:51.881Z,974.49
2023-01-29T09:20:51.891Z,974.51
2023-01-29T09:21:51.911Z,974.56
2023-01-29T09:22:51.870Z,974.59
2023-01-29T09:23:51.858Z,974.59
2023-01-29T09:24:51.827Z,974.61
2023-01-29T09:25:51.817Z,974.65
2023-01-29T09:26:51.833Z,974.65
2023-01-29T09:27:51.812Z,974.63
2023-01-29T09:28:51.813Z,974.61
2023-01-29T09:29:51.770Z,974.61
2023-01-29T09:30:51.881Z,974.60
2023-01-29T09:31:52.083Z,974.67
2023-01-29T09:32:53.556Z,974.64
2023-01-29T09:33:51.741Z,974.69
2023-01-29T09:34:51.747Z,974.64
2023-01-29T09:35:51.705Z,974.68
2023-01-29T09:36:51.710Z,974.70
2023-01-29T09:37:51.825Z,974.68
2023-01-29T09:38:51.683Z,974.67
2023-01-29T09:39:51.680Z,974.67
2023-01-29T09:40:51.711Z,974.63
2023-01-29T09:41:51.669Z,974.72
2023-01-29T09:42:51.628Z,974.68
2023-01-29T09:43:51.617Z,974.62
2023-01-29T09:44:51.631Z,974.68
2023-01-29T09:45:51.624Z,974.68
2023-01-29T09:46:51.640Z,974.67
2023-01-29T09:47:51.606Z,974.67
2023-01-29T09:48:51.563Z,974.66
2023-01-29T09:49:51.553Z,974.63
2023-01-29T09:50:51.571Z,974.66
2023-01-29T09:51:51.531Z,974.66
2023-01-29T09:52:51.580Z,974.65
2023-01-29T09:53:51.504Z,974.66
2023-01-29T09:54:51.493Z,974.65
2023-01-29T09:55:51.490Z,974.69
2023-01-29T09:56:51.498Z,974.67
2023-01-29T09:57:51.473Z,974.66
2023-01-29T09:58:51.511Z,974.70
2023-01-29T09:59:51.456Z,974.73
2023-01-29T10:00:51.447Z,974.70
2023-01-29T10:01:51.594Z,974.71
2023-01-29T10:02:51.428Z,974.72
2023-01-29T10:03:51.407Z,974.71
2023-01-29T10:04:51.476Z,974.77
2023-01-29T10:05:51.388Z,974.65
2023-01-29T10:06:51.362Z,974.65
2023-01-29T10:07:51.357Z,974.68
2023-01-29T10:08:51.361Z,974.66
2023-01-29T10:09:51.342Z,974.69
2023-01-29T10:10:51.326Z,974.72
2023-01-29T10:11:51.301Z,974.64
2023-01-29T10:12:51.308Z,974.60
2023-01-29T10:13:51.298Z,974.63
2023-01-29T10:14:51.290Z,974.58
2023-01-29T10:15:51.264Z,974.59
2023-01-29T10:16:51.318Z,974.61
2023-01-29T10:17:51.342Z,974.58
2023-01-29T10:18:51.239Z,974.60
2023-01-29T10:19:51.231Z,974.56
2023-01-29T10:20:51.241Z,974.54
2023-01-29T10:21:51.190Z,974.54
2023-01-29T10:22:51.238Z,974.58
2023-01-29T10:23:51.172Z,974.53
2023-01-29T10:24:51.175Z,974.53
2023-01-29T10:25:51.170Z,974.56
2023-01-29T10:26:51.158Z,974.59
2023-01-29T10:27:51.159Z,974.55
2023-01-29T10:28:51.143Z,974.56
2023-01-29T10:29:51.106Z,974.53
2023-01-29T10:30:51.243Z,974.50
2023-01-29T10:31:51.172Z,974.46
2023-01-29T10:32:51.079Z,974.49
2023-01-29T10:34:01.362Z,974.54
2023-01-29T10:34:52.090Z,974.50
2023-01-29T10:35:51.068Z,974.47
2023-01-29T10:36:51.032Z,974.52
2023-01-29T10:37:51.023Z,974.51
2023-01-29T10:38:51.003Z,974.47
2023-01-29T10:39:50.991Z,974.47
2023-01-29T10:40:51.003Z,974.48
2023-01-29T10:41:53.080Z,974.48
2023-01-29T10:42:50.991Z,974.47
2023-01-29T10:43:50.964Z,974.43
2023-01-29T10:44:50.938Z,974.44
2023-01-29T10:45:50.926Z,974.49
2023-01-29T10:46:50.926Z,974.45
2023-01-29T10:47:51.039Z,974.49
2023-01-29T10:48:50.938Z,974.44
2023-01-29T10:49:50.878Z,974.42
2023-01-29T10:50:50.885Z,974.40
2023-01-29T10:51:50.856Z,974.37
2023-01-29T10:52:50.871Z,974.41
2023-01-29T10:53:50.852Z,974.32
2023-01-29T10:54:50.860Z,974.36
2023-01-29T10:55:50.841Z,974.26
2023-01-29T10:56:50.806Z,974.31
2023-01-29T10:57:50.793Z,974.26
2023-01-29T10:58:50.829Z,974.26
2023-01-29T10:59:50.812Z,974.27
2023-01-29T11:00:50.776Z,974.25
2023-01-29T11:01:50.777Z,974.26
2023-01-29T11:02:50.865Z,974.19
2023-01-29T11:03:50.750Z,974.21
2023-01-29T11:04:50.733Z,974.20
2023-01-29T11:05:50.749Z,974.14
2023-01-29T11:06:50.708Z,974.20
2023-01-29T11:07:50.693Z,974.20
2023-01-29T11:08:50.685Z,974.13
2023-01-29T11:09:50.659Z,974.20
2023-01-29T11:10:50.660Z,974.13
2023-01-29T11:11:50.670Z,974.10
2023-01-29T11:12:50.634Z,974.09
2023-01-29T11:13:50.634Z,974.08
2023-01-29T11:14:50.603Z,974.00
2023-01-29T11:15:50.598Z,974.02
2023-01-29T11:16:50.631Z,973.99
2023-01-29T11:17:50.604Z,974.03
2023-01-29T11:18:50.560Z,974.06
2023-01-29T11:19:50.559Z,974.01
2023-01-29T11:20:50.536Z,974.01
2023-01-29T11:21:50.535Z,974.04
2023-01-29T11:22:50.537Z,973.95
2023-01-29T11:23:51.514Z,973.92
2023-01-29T11:24:50.498Z,973.93
2023-01-29T11:25:50.501Z,973.94
2023-01-29T11:26:50.467Z,973.91
2023-01-29T11:27:50.526Z,973.90
2023-01-29T11:28:50.464Z,973.85
2023-01-29T11:29:50.479Z,973.87
2023-01-29T11:30:50.525Z,973.87
2023-01-29T11:31:50.494Z,973.89
2023-01-29T11:32:50.441Z,973.88
2023-01-29T11:33:50.509Z,973.80
2023-01-29T11:34:50.450Z,973.77
2023-01-29T11:35:50.434Z,973.76
2023-01-29T11:36:50.959Z,973.71
2023-01-29T11:37:50.454Z,973.71
2023-01-29T11:38:50.375Z,973.62
2023-01-29T11:39:50.489Z,973.64
2023-01-29T11:40:50.401Z,973.52
2023-01-29T11:41:50.301Z,973.50
2023-01-29T11:42:50.291Z,973.46
2023-01-29T11:43:50.484Z,973.44
2023-01-29T11:44:50.288Z,973.40
2023-01-29T11:45:50.273Z,973.38
2023-01-29T11:46:50.304Z,973.37
2023-01-29T11:47:50.274Z,973.32
2023-01-29T11:48:50.449Z,973.28
2023-01-29T11:49:50.216Z,973.35
2023-01-29T11:50:50.200Z,973.36
2023-01-29T11:51:50.225Z,973.31
2023-01-29T11:52:50.178Z,973.35
2023-01-29T11:53:50.174Z,973.34
2023-01-29T11:54:50.175Z,973.39
2023-01-29T11:55:51.159Z,973.36
2023-01-29T11:56:50.139Z,973.38
2023-01-29T11:57:50.172Z,973.39
2023-01-29T11:58:50.146Z,973.39
2023-01-29T11:59:50.112Z,973.38
2023-01-29T12:00:50.090Z,973.39
2023-01-29T12:01:50.096Z,973.37
2023-01-29T12:02:50.074Z,973.45
2023-01-29T12:03:50.170Z,973.50
2023-01-29T12:04:50.046Z,973.47
2023-01-29T12:05:50.097Z,973.48
2023-01-29T12:06:50.051Z,973.49
2023-01-29T12:07:50.039Z,973.49
2023-01-29T12:08:50.013Z,973.52
2023-01-29T12:09:50.025Z,973.47
2023-01-29T12:10:49.980Z,973.50
2023-01-29T12:11:49.984Z,973.53
2023-01-29T12:12:49.960Z,973.50
2023-01-29T12:13:49.952Z,973.55
2023-01-29T12:14:49.956Z,973.54
2023-01-29T12:15:50.001Z,973.56
2023-01-29T12:16:49.936Z,973.55
2023-01-29T12:17:49.912Z,973.50
2023-01-29T12:18:49.915Z,973.49
2023-01-29T12:19:49.897Z,973.44
2023-01-29T12:20:49.891Z,973.49
2023-01-29T12:21:49.893Z,973.50
2023-01-29T12:22:49.847Z,973.47
2023-01-29T12:23:49.863Z,973.39
2023-01-29T12:24:49.846Z,973.41
2023-01-29T12:25:49.840Z,973.42
2023-01-29T12:26:49.817Z,973.46
2023-01-29T12:27:49.800Z,973.45
2023-01-29T12:28:49.780Z,973.45